Time;durP1;ratioP1;P1;durP2;ratioP2;P2;SDS_P1;SDS_P2;PMS_P1;PMS_P2;Temp;Humidity;BMP_temperature;BMP_pressure;BME280_temperature;BME280_humidity;BME280_pressure;Samples;Min_cycle;Max_cycle;Signal;HPM_P1;HPM_P2
2021/01/20 00:01:01;;;;;;;9.47;4.90;;;5.90;99.90;;;;;;4963369;28;20202;-80
2021/01/20 00:03:29;;;;;;;7.60;5.20;;;6.00;99.90;;;;;;4980189;28;20416;-80
2021/01/20 00:05:56;;;;;;;6.47;4.78;;;6.00;99.90;;;;;;4984344;28;20451;-80
2021/01/20 00:08:24;;;;;;;4.90;4.40;;;6.00;99.90;;;;;;4970657;28;20210;-80
2021/01/20 00:10:49;;;;;;;11.18;6.00;;;5.90;99.90;;;;;;4987096;28;20264;-81
2021/01/20 00:13:15;;;;;;;6.07;4.73;;;5.90;99.90;;;;;;4987372;28;20174;-80
2021/01/20 00:15:43;;;;;;;8.40;5.33;;;5.90;99.90;;;;;;4987291;28;20632;-80
2021/01/20 00:18:09;;;;;;;11.98;6.32;;;6.00;99.90;;;;;;4987623;28;20425;-80
2021/01/20 00:20:35;;;;;;;13.27;5.60;;;6.00;99.90;;;;;;5005537;28;20175;-80
2021/01/20 00:23:01;;;;;;;11.43;5.23;;;6.00;99.90;;;;;;4970714;28;20519;-80
2021/01/20 00:25:26;;;;;;;8.93;5.20;;;5.90;99.90;;;;;;4986031;28;20674;-81
2021/01/20 00:27:52;;;;;;;10.13;5.77;;;6.00;99.90;;;;;;4985786;28;20231;-81
2021/01/20 00:30:18;;;;;;;7.57;5.23;;;6.00;99.90;;;;;;4985916;28;20861;-80
2021/01/20 00:32:44;;;;;;;8.80;5.20;;;5.90;99.90;;;;;;4985232;28;20213;-80
2021/01/20 00:35:11;;;;;;;6.57;4.53;;;5.90;99.90;;;;;;4968843;28;20636;-80
2021/01/20 00:37:38;;;;;;;9.30;5.43;;;5.80;99.90;;;;;;5002615;28;20421;-80
2021/01/20 00:40:05;;;;;;;7.82;4.10;;;5.80;99.90;;;;;;5002665;28;20193;-80
2021/01/20 00:42:31;;;;;;;8.23;4.88;;;5.70;99.90;;;;;;5001828;28;20634;-80
2021/01/20 00:44:57;;;;;;;7.20;4.13;;;5.70;99.90;;;;;;5001510;28;20214;-79
2021/01/20 00:47:23;;;;;;;11.47;5.93;;;5.70;99.90;;;;;;4986379;28;20429;-79
2021/01/20 00:49:48;;;;;;;9.80;4.57;;;5.70;99.90;;;;;;5004144;28;20345;-80
2021/01/20 00:52:14;;;;;;;6.17;4.00;;;5.70;99.90;;;;;;4987919;28;20182;-80
2021/01/20 00:54:40;;;;;;;11.10;5.20;;;5.80;99.90;;;;;;4987456;28;20200;-80
2021/01/20 00:57:05;;;;;;;8.93;4.80;;;5.90;99.90;;;;;;4985913;28;20167;-80
2021/01/20 00:59:31;;;;;;;7.77;4.93;;;5.90;99.90;;;;;;4970757;28;20178;-80
2021/01/20 01:01:59;;;;;;;5.50;4.37;;;6.00;99.90;;;;;;4986994;28;20234;-80
2021/01/20 01:04:26;;;;;;;8.05;4.80;;;6.00;99.90;;;;;;5005092;28;20262;-80
2021/01/20 01:06:54;;;;;;;6.15;5.22;;;6.10;99.90;;;;;;5004253;28;20194;-80
2021/01/20 01:09:20;;;;;;;9.20;4.80;;;6.10;99.90;;;;;;5005138;28;20249;-80
2021/01/20 01:11:45;;;;;;;5.67;4.00;;;6.10;99.90;;;;;;4986738;28;20166;-79
2021/01/20 01:14:11;;;;;;;6.20;4.30;;;6.10;99.90;;;;;;4970590;28;20690;-79
2021/01/20 01:16:38;;;;;;;5.87;4.47;;;6.10;99.90;;;;;;4984484;28;20278;-79
2021/01/20 01:19:04;;;;;;;7.97;4.68;;;6.10;99.90;;;;;;4983819;28;20463;-79
2021/01/20 01:21:30;;;;;;;7.95;4.07;;;6.10;99.90;;;;;;4967454;28;20187;-80
2021/01/20 01:23:55;;;;;;;7.03;4.27;;;6.10;99.90;;;;;;4983965;28;20185;-80
2021/01/20 01:26:21;;;;;;;6.43;3.60;;;6.10;99.90;;;;;;4968215;28;20202;-80
2021/01/20 01:28:46;;;;;;;6.20;4.43;;;6.10;99.90;;;;;;4983691;28;20183;-80
2021/01/20 01:31:12;;;;;;;6.27;4.10;;;6.10;99.90;;;;;;5000776;28;20195;-80
2021/01/20 01:33:38;;;;;;;4.43;3.80;;;6.10;99.90;;;;;;4984404;28;20646;-80
2021/01/20 01:36:05;;;;;;;6.63;4.30;;;6.10;99.90;;;;;;4983948;28;20191;-80
2021/01/20 01:38:30;;;;;;;6.13;4.05;;;6.20;99.90;;;;;;5000614;28;20177;-80
2021/01/20 01:40:56;;;;;;;8.60;5.03;;;6.10;99.90;;;;;;5000703;28;20254;-80
2021/01/20 01:43:23;;;;;;;7.70;5.10;;;6.10;99.90;;;;;;5001099;28;20171;-80
2021/01/20 01:45:49;;;;;;;7.60;4.75;;;6.20;99.90;;;;;;4983868;28;20223;-80
2021/01/20 01:48:15;;;;;;;6.80;3.93;;;6.10;99.90;;;;;;4983968;28;20226;-80
2021/01/20 01:50:41;;;;;;;6.55;4.20;;;6.10;99.90;;;;;;4983117;28;20470;-80
2021/01/20 01:53:08;;;;;;;7.57;4.93;;;6.10;99.90;;;;;;4982292;28;20174;-80
2021/01/20 01:55:36;;;;;;;6.53;3.85;;;6.10;99.90;;;;;;4982749;28;20195;-80
2021/01/20 01:58:02;;;;;;;7.35;4.10;;;6.10;99.90;;;;;;4966962;28;20183;-79
2021/01/20 02:00:32;;;;;;;8.23;5.20;;;6.10;99.90;;;;;;5000695;28;20167;-79
2021/01/20 02:02:57;;;;;;;5.82;4.25;;;6.10;99.90;;;;;;5001094;28;20175;-79
2021/01/20 02:05:23;;;;;;;10.00;4.50;;;6.10;99.90;;;;;;4982693;28;20218;-79
2021/01/20 02:07:49;;;;;;;5.83;4.63;;;6.10;99.90;;;;;;4967117;28;20174;-79
2021/01/20 02:10:15;;;;;;;4.97;3.77;;;6.10;99.90;;;;;;5000739;28;20277;-80
2021/01/20 02:12:55;;;;;;;7.80;4.95;;;6.10;99.90;;;;;;4966038;28;20468;-80
2021/01/20 02:15:52;;;;;;;8.15;4.28;;;6.20;99.90;;;;;;4983111;28;20283;-80
2021/01/20 02:18:22;;;;;;;9.57;4.93;;;6.10;99.90;;;;;;4977448;28;20236;-80
2021/01/20 02:21:26;;;;;;;6.80;4.80;;;6.10;99.90;;;;;;4982869;28;20239;-80
2021/01/20 02:23:52;;;;;;;6.72;4.13;;;6.10;99.90;;;;;;5000087;28;20665;-80
2021/01/20 02:26:21;;;;;;;8.80;4.88;;;6.20;99.90;;;;;;4982428;28;20596;-80
2021/01/20 02:29:06;;;;;;;9.00;5.30;;;6.20;99.90;;;;;;4982297;28;20175;-80
2021/01/20 02:31:33;;;;;;;7.22;5.30;;;6.20;99.90;;;;;;4982270;28;20206;-80
2021/01/20 02:34:03;;;;;;;5.38;4.53;;;6.20;99.90;;;;;;4966631;28;20190;-80
2021/01/20 02:36:30;;;;;;;6.80;5.10;;;6.20;99.90;;;;;;4981966;28;20205;-80
2021/01/20 02:38:56;;;;;;;7.95;5.38;;;6.20;99.90;;;;;;4999540;28;20214;-80
2021/01/20 02:41:28;;;;;;;6.47;5.10;;;6.20;99.90;;;;;;4981928;28;20241;-80
2021/01/20 02:43:54;;;;;;;10.18;5.70;;;6.20;99.90;;;;;;4982493;28;20233;-80
2021/01/20 02:46:21;;;;;;;6.95;5.10;;;6.20;99.90;;;;;;4982950;28;20194;-80
2021/01/20 02:48:48;;;;;;;7.68;5.43;;;6.20;99.90;;;;;;5000094;28;20175;-80
2021/01/20 02:51:26;;;;;;;9.75;5.18;;;6.20;99.90;;;;;;4981288;28;20194;-80
2021/01/20 02:53:54;;;;;;;7.22;5.28;;;6.20;99.90;;;;;;5000291;28;20167;-81
2021/01/20 02:56:23;;;;;;;5.93;4.75;;;6.20;99.90;;;;;;4983013;28;20201;-80
2021/01/20 02:58:50;;;;;;;9.05;5.50;;;6.20;99.90;;;;;;4999886;28;20238;-80
2021/01/20 03:01:18;;;;;;;9.43;4.65;;;6.20;99.90;;;;;;4982195;28;20210;-80
2021/01/20 03:03:49;;;;;;;8.38;5.28;;;6.20;99.90;;;;;;4999886;28;20167;-79
2021/01/20 03:06:17;;;;;;;9.50;5.60;;;6.10;99.90;;;;;;4982915;28;20229;-81
2021/01/20 03:08:49;;;;;;;10.27;4.80;;;6.20;99.90;;;;;;4983507;28;20171;-80
2021/01/20 03:11:14;;;;;;;12.65;5.85;;;6.20;99.90;;;;;;4969389;28;20240;-80
2021/01/20 03:13:43;;;;;;;8.67;6.40;;;6.30;99.90;;;;;;4992843;28;20175;-81
2021/01/20 03:16:08;;;;;;;11.20;6.45;;;6.30;99.90;;;;;;4981962;28;20836;-79
2021/01/20 03:18:34;;;;;;;8.63;5.30;;;6.30;99.90;;;;;;4963574;28;20202;-79
2021/01/20 03:21:03;;;;;;;6.83;4.50;;;6.30;99.90;;;;;;4963160;28;20183;-79
2021/01/20 03:23:29;;;;;;;9.07;5.70;;;6.30;99.90;;;;;;4997478;28;20175;-79
2021/01/20 03:25:56;;;;;;;9.73;6.47;;;6.30;99.90;;;;;;4997482;28;20253;-79
2021/01/20 03:28:23;;;;;;;7.35;5.28;;;6.20;99.90;;;;;;4998268;28;20182;-79
2021/01/20 03:30:49;;;;;;;7.60;4.82;;;6.20;99.90;;;;;;4979911;28;20218;-79
2021/01/20 03:33:15;;;;;;;8.13;5.18;;;6.20;99.90;;;;;;4997500;28;20270;-79
2021/01/20 03:35:41;;;;;;;7.50;5.57;;;6.30;99.90;;;;;;4997271;28;20701;-79
2021/01/20 03:38:08;;;;;;;6.87;4.93;;;6.20;99.90;;;;;;4996843;28;20198;-79
2021/01/20 03:40:34;;;;;;;11.13;5.63;;;6.20;99.90;;;;;;4996403;28;20175;-79
2021/01/20 03:43:00;;;;;;;7.70;5.07;;;6.20;99.90;;;;;;4978766;28;20183;-80
2021/01/20 03:45:25;;;;;;;8.80;4.97;;;6.20;99.90;;;;;;4996714;28;20198;-80
2021/01/20 03:47:51;;;;;;;7.80;5.00;;;6.20;99.90;;;;;;4996470;28;20788;-79
2021/01/20 03:50:17;;;;;;;9.47;4.83;;;6.10;99.90;;;;;;4996667;28;20285;-80
2021/01/20 03:52:42;;;;;;;7.27;5.00;;;6.20;99.90;;;;;;4978955;28;20167;-81
2021/01/20 03:55:09;;;;;;;7.27;4.37;;;6.20;99.90;;;;;;4996201;28;20607;-80
2021/01/20 03:57:34;;;;;;;5.18;4.00;;;6.20;99.90;;;;;;4963016;28;20177;-80
2021/01/20 04:00:00;;;;;;;8.70;5.53;;;6.20;99.90;;;;;;4998416;28;20183;-80
2021/01/20 04:02:25;;;;;;;6.00;4.40;;;6.20;99.90;;;;;;4980744;28;20171;-80
2021/01/20 04:04:51;;;;;;;6.47;4.60;;;6.20;99.90;;;;;;4997662;28;20253;-80
2021/01/20 04:07:17;;;;;;;5.17;4.23;;;6.10;99.90;;;;;;4997086;28;20180;-80
2021/01/20 04:09:42;;;;;;;5.20;4.00;;;6.10;99.90;;;;;;4980802;28;20203;-81
2021/01/20 04:12:08;;;;;;;7.33;3.90;;;6.10;99.90;;;;;;4997992;28;20218;-81
2021/01/20 04:14:34;;;;;;;5.50;4.17;;;6.10;99.90;;;;;;4997534;28;20262;-81
2021/01/20 04:16:59;;;;;;;6.23;4.60;;;6.00;99.90;;;;;;4979894;28;20238;-80
2021/01/20 04:19:25;;;;;;;7.80;5.97;;;6.00;99.90;;;;;;4980809;28;20175;-80
2021/01/20 04:21:51;;;;;;;7.07;5.07;;;6.00;99.90;;;;;;4980374;28;20171;-81
2021/01/20 04:24:17;;;;;;;7.10;4.77;;;6.00;99.90;;;;;;4964151;28;20293;-80
2021/01/20 04:26:44;;;;;;;5.20;4.43;;;6.00;99.90;;;;;;4979902;28;20292;-80
2021/01/20 04:29:11;;;;;;;9.18;5.43;;;6.00;99.90;;;;;;4998177;28;20194;-80
2021/01/20 04:31:37;;;;;;;6.43;5.05;;;5.90;99.90;;;;;;4980695;28;20198;-80
2021/01/20 04:34:06;;;;;;;8.27;5.85;;;6.00;99.90;;;;;;4980831;28;20626;-80
2021/01/20 04:36:33;;;;;;;8.05;5.10;;;5.90;99.90;;;;;;4997323;28;20186;-81
2021/01/20 04:38:58;;;;;;;7.70;4.43;;;6.00;99.90;;;;;;4980607;28;20175;-81
2021/01/20 04:41:24;;;;;;;9.30;5.00;;;6.00;99.90;;;;;;4997765;28;20179;-79
2021/01/20 04:43:49;;;;;;;6.70;4.27;;;6.00;99.90;;;;;;4979825;28;20187;-81
2021/01/20 04:46:16;;;;;;;7.60;3.93;;;5.90;99.90;;;;;;4962915;28;20601;-81
2021/01/20 04:48:43;;;;;;;7.90;5.35;;;5.90;99.90;;;;;;4963060;28;20189;-79
2021/01/20 04:51:09;;;;;;;4.90;4.10;;;5.90;99.90;;;;;;4964347;28;20210;-79
2021/01/20 04:53:38;;;;;;;7.82;3.90;;;5.90;99.90;;;;;;4967915;28;20321;-80
2021/01/20 04:56:13;;;;;;;7.03;3.95;;;5.90;99.90;;;;;;5001138;28;20201;-80
2021/01/20 04:58:39;;;;;;;5.30;4.13;;;5.90;99.90;;;;;;4983759;28;20166;-80
2021/01/20 05:01:05;;;;;;;6.15;4.50;;;5.90;99.90;;;;;;4984574;28;20545;-81
2021/01/20 05:03:31;;;;;;;6.30;3.90;;;5.90;99.90;;;;;;4984218;28;20262;-80
2021/01/20 05:05:57;;;;;;;5.30;3.97;;;6.00;99.90;;;;;;5000948;28;20202;-80
2021/01/20 05:08:25;;;;;;;6.80;4.37;;;6.00;99.90;;;;;;4983225;28;20186;-80
2021/01/20 05:10:51;;;;;;;9.30;4.20;;;6.00;99.90;;;;;;4966056;28;20674;-81
2021/01/20 05:13:24;;;;;;;4.73;3.03;;;5.90;99.90;;;;;;5000194;28;20302;-81
2021/01/20 05:15:53;;;;;;;5.57;3.75;;;5.90;99.90;;;;;;4982727;28;20209;-81
2021/01/20 05:18:18;;;;;;;7.43;4.13;;;6.00;99.90;;;;;;4982563;28;20175;-81
2021/01/20 05:20:45;;;;;;;7.07;4.73;;;6.00;99.90;;;;;;4999925;28;20269;-81
2021/01/20 05:23:11;;;;;;;5.30;3.72;;;5.90;99.90;;;;;;5000205;28;20418;-80
2021/01/20 05:25:59;;;;;;;4.88;3.80;;;5.90;99.90;;;;;;4982354;28;20230;-80
2021/01/20 05:28:28;;;;;;;5.65;4.32;;;5.90;99.90;;;;;;4977380;28;20647;-80
2021/01/20 05:31:00;;;;;;;4.03;3.20;;;5.90;99.90;;;;;;4982015;28;20202;-80
2021/01/20 05:33:40;;;;;;;5.15;4.00;;;6.00;99.90;;;;;;4982920;28;20242;-81
2021/01/20 05:36:07;;;;;;;6.13;4.47;;;5.90;99.90;;;;;;5000521;28;20233;-81
2021/01/20 05:38:38;;;;;;;6.43;4.45;;;5.90;99.90;;;;;;4983425;28;20174;-81
2021/01/20 05:41:18;;;;;;;4.68;3.80;;;5.90;99.90;;;;;;5000660;28;20159;-80
2021/01/20 05:43:45;;;;;;;5.00;4.00;;;5.90;99.90;;;;;;4983118;28;20427;-81
2021/01/20 05:46:11;;;;;;;6.63;4.10;;;5.90;99.90;;;;;;4982913;28;20605;-81
2021/01/20 05:48:47;;;;;;;6.07;3.75;;;5.90;99.90;;;;;;4983234;28;20178;-81
2021/01/20 05:51:13;;;;;;;5.25;3.38;;;5.90;99.90;;;;;;4983199;28;20280;-80
2021/01/20 05:53:56;;;;;;;15.82;3.80;;;5.90;99.90;;;;;;4983304;28;20171;-80
2021/01/20 05:56:32;;;;;;;4.43;3.83;;;5.90;99.90;;;;;;4983898;28;20274;-80
2021/01/20 05:58:58;;;;;;;6.15;3.90;;;5.90;99.90;;;;;;5000296;28;20185;-80
2021/01/20 06:01:25;;;;;;;6.95;4.07;;;5.90;99.90;;;;;;5000379;28;20171;-80
2021/01/20 06:03:51;;;;;;;3.58;2.97;;;5.90;99.90;;;;;;4982304;28;20182;-80
2021/01/20 06:06:18;;;;;;;4.05;3.45;;;5.90;99.90;;;;;;4999945;28;20220;-80
2021/01/20 06:08:45;;;;;;;8.77;4.80;;;5.90;99.90;;;;;;4982093;28;20269;-82
2021/01/20 06:11:11;;;;;;;6.38;4.38;;;5.90;99.90;;;;;;4952041;28;20283;-79
2021/01/20 06:13:37;;;;;;;4.30;3.70;;;5.80;99.90;;;;;;4979437;28;20171;-79
2021/01/20 06:16:24;;;;;;;3.72;2.90;;;5.80;99.90;;;;;;4961902;28;20183;-80
2021/01/20 06:18:54;;;;;;;5.55;3.10;;;5.80;99.90;;;;;;4961234;28;20719;-79
2021/01/20 06:21:20;;;;;;;4.57;3.53;;;5.80;99.90;;;;;;4979323;28;20248;-82
2021/01/20 06:24:11;;;;;;;5.90;3.90;;;5.80;99.90;;;;;;4978077;28;20215;-80
2021/01/20 06:26:48;;;;;;;3.78;3.10;;;5.80;99.90;;;;;;4978585;28;20446;-81
2021/01/20 06:29:16;;;;;;;4.63;3.78;;;5.80;99.90;;;;;;4962061;28;20214;-80
2021/01/20 06:31:45;;;;;;;4.68;3.33;;;5.80;99.90;;;;;;4939972;28;20218;-80
2021/01/20 06:34:11;;;;;;;7.10;3.58;;;5.80;99.90;;;;;;4961586;28;20182;-81
2021/01/20 06:36:37;;;;;;;6.20;3.57;;;5.80;99.90;;;;;;4960755;28;20286;-80
2021/01/20 06:39:31;;;;;;;5.38;3.90;;;5.80;99.90;;;;;;4945251;28;20180;-81
2021/01/20 06:41:58;;;;;;;3.42;3.05;;;5.80;99.90;;;;;;4960858;28;20543;-80
2021/01/20 06:44:24;;;;;;;4.32;2.88;;;5.80;99.90;;;;;;4946243;28;20638;-81
2021/01/20 06:47:02;;;;;;;4.17;2.93;;;5.80;99.90;;;;;;4945824;28;20184;-81
2021/01/20 06:49:30;;;;;;;4.70;3.75;;;5.80;99.90;;;;;;4960133;28;20421;-81
2021/01/20 06:52:05;;;;;;;9.73;3.63;;;5.90;99.90;;;;;;4974472;28;20199;-81
2021/01/20 06:54:36;;;;;;;5.68;4.03;;;5.80;99.90;;;;;;4971099;28;20194;-81
2021/01/20 06:57:04;;;;;;;5.30;3.20;;;5.80;99.90;;;;;;4970485;28;20182;-80
2021/01/20 06:59:31;;;;;;;4.10;3.35;;;5.80;99.90;;;;;;4963619;28;20191;-80
2021/01/20 07:02:05;;;;;;;4.25;3.05;;;5.90;99.90;;;;;;4979774;28;20198;-80
2021/01/20 07:04:37;;;;;;;6.05;4.07;;;5.90;99.90;;;;;;4975379;28;20531;-79
2021/01/20 07:07:10;;;;;;;5.93;3.55;;;5.80;99.90;;;;;;4969272;28;20183;-80
2021/01/20 07:09:57;;;;;;;4.90;3.05;;;5.80;99.90;;;;;;4945057;28;20183;-82
2021/01/20 07:12:24;;;;;;;7.10;4.22;;;5.80;99.90;;;;;;4951067;28;20254;-82
2021/01/20 07:14:51;;;;;;;6.72;3.28;;;5.80;99.90;;;;;;4960116;28;20196;-81
2021/01/20 07:17:20;;;;;;;4.03;3.22;;;5.80;99.90;;;;;;4961789;28;20179;-81
2021/01/20 07:19:47;;;;;;;4.00;2.95;;;5.80;99.90;;;;;;4960963;28;20175;-82
2021/01/20 07:22:20;;;;;;;5.05;3.53;;;6.00;99.90;;;;;;4962981;28;20651;-83
2021/01/20 07:24:46;;;;;;;3.63;3.30;;;6.40;99.90;;;;;;4976776;28;20211;-83
2021/01/20 07:27:13;;;;;;;4.80;2.80;;;6.60;99.90;;;;;;4962278;28;20246;-83
2021/01/20 07:29:39;;;;;;;3.38;2.78;;;6.60;99.90;;;;;;4962976;28;20430;-80
2021/01/20 07:32:06;;;;;;;7.97;3.70;;;6.70;99.90;;;;;;4977262;28;20266;-80
2021/01/20 07:34:40;;;;;;;6.22;4.22;;;6.80;99.90;;;;;;4978010;28;20172;-81
2021/01/20 07:37:17;;;;;;;4.47;3.45;;;6.70;99.90;;;;;;4960364;28;20167;-82
2021/01/20 07:39:47;;;;;;;4.80;3.70;;;6.70;99.90;;;;;;4976828;28;20186;-82
2021/01/20 07:42:12;;;;;;;4.78;3.33;;;6.70;99.90;;;;;;4977322;28;20250;-82
2021/01/20 07:44:49;;;;;;;4.80;3.40;;;6.70;99.90;;;;;;4948116;28;20187;-82
2021/01/20 07:47:14;;;;;;;3.78;2.83;;;6.80;99.90;;;;;;4960803;28;20183;-82
2021/01/20 07:49:56;;;;;;;3.50;3.03;;;6.90;99.90;;;;;;4959269;28;20187;-82
2021/01/20 07:52:22;;;;;;;4.90;3.38;;;6.90;99.90;;;;;;4959930;28;20175;-83
2021/01/20 07:54:51;;;;;;;4.50;3.40;;;6.80;99.90;;;;;;4957822;28;20283;-82
2021/01/20 07:57:19;;;;;;;5.32;3.10;;;6.70;99.90;;;;;;4960491;28;20203;-81
2021/01/20 07:59:57;;;;;;;5.50;3.20;;;6.50;99.90;;;;;;4959462;28;20180;-81
2021/01/20 08:02:23;;;;;;;4.35;3.42;;;6.40;99.90;;;;;;4977201;28;20281;-80
2021/01/20 08:04:57;;;;;;;5.73;3.40;;;6.30;99.90;;;;;;4942436;28;20691;-84
2021/01/20 08:07:23;;;;;;;4.60;3.40;;;6.20;99.90;;;;;;4976704;28;20178;-81
2021/01/20 08:09:48;;;;;;;3.53;2.63;;;6.20;99.90;;;;;;4958757;28;20203;-81
2021/01/20 08:12:18;;;;;;;5.87;3.17;;;6.20;99.90;;;;;;4960136;28;20257;-81
2021/01/20 08:14:44;;;;;;;3.80;3.03;;;6.40;99.90;;;;;;4959460;28;20187;-81
2021/01/20 08:17:11;;;;;;;6.15;3.60;;;6.40;99.90;;;;;;4959563;28;20198;-81
2021/01/20 08:19:40;;;;;;;5.32;3.13;;;6.20;99.90;;;;;;4959331;28;20697;-82
2021/01/20 08:22:17;;;;;;;4.72;3.45;;;6.30;99.90;;;;;;4959459;28;20184;-81
2021/01/20 08:24:53;;;;;;;4.43;2.85;;;6.20;99.90;;;;;;4946754;28;20195;-82
2021/01/20 08:27:31;;;;;;;3.50;2.60;;;6.20;99.90;;;;;;4963868;28;20175;-82
2021/01/20 08:29:58;;;;;;;3.47;3.20;;;6.30;99.90;;;;;;4964525;28;20206;-83
2021/01/20 08:32:24;;;;;;;3.85;2.58;;;6.30;99.90;;;;;;4964274;28;20254;-83
2021/01/20 08:34:55;;;;;;;4.72;2.60;;;6.40;99.90;;;;;;4982771;28;20187;-83
2021/01/20 08:37:41;;;;;;;4.15;2.33;;;6.40;99.90;;;;;;4964868;28;20195;-83
2021/01/20 08:40:14;;;;;;;4.20;2.85;;;6.40;99.90;;;;;;4982825;28;20187;-82
2021/01/20 08:42:41;;;;;;;5.35;2.92;;;6.40;99.90;;;;;;4965755;28;20183;-82
2021/01/20 08:45:10;;;;;;;3.50;2.38;;;6.50;99.90;;;;;;4965729;28;20203;-82
2021/01/20 08:48:02;;;;;;;6.00;2.78;;;6.50;99.90;;;;;;4964369;28;20229;-82
2021/01/20 08:50:28;;;;;;;2.58;2.38;;;6.50;99.90;;;;;;4964347;28;20231;-83
2021/01/20 08:52:55;;;;;;;2.53;2.00;;;6.50;99.90;;;;;;4981623;28;20178;-81
2021/01/20 08:55:49;;;;;;;2.63;1.83;;;6.50;99.90;;;;;;4981281;28;20187;-83
2021/01/20 08:58:21;;;;;;;3.20;2.85;;;6.50;99.90;;;;;;4966517;28;20171;-82
2021/01/20 09:01:22;;;;;;;2.83;2.55;;;6.50;99.90;;;;;;4962888;28;20179;-82
2021/01/20 09:03:55;;;;;;;2.92;2.45;;;6.50;99.90;;;;;;4980619;28;20370;-83
2021/01/20 09:06:20;;;;;;;3.65;2.55;;;6.50;99.90;;;;;;4981838;28;20314;-82
2021/01/20 09:08:54;;;;;;;3.83;3.00;;;6.50;99.90;;;;;;4962817;28;20258;-82
2021/01/20 09:11:21;;;;;;;2.92;2.53;;;6.50;99.90;;;;;;4949874;28;20516;-82
2021/01/20 09:13:47;;;;;;;3.90;2.50;;;6.60;99.90;;;;;;4947331;28;20179;-83
2021/01/20 09:16:12;;;;;;;8.13;3.23;;;6.70;99.90;;;;;;4969325;28;20191;-81
2021/01/20 09:18:39;;;;;;;5.47;3.60;;;6.60;99.90;;;;;;4955001;28;20419;-82
2021/01/20 09:21:04;;;;;;;3.47;2.63;;;6.70;99.90;;;;;;4964142;28;20426;-82
2021/01/20 09:23:33;;;;;;;4.28;2.70;;;6.80;99.90;;;;;;4964117;28;20692;-82
2021/01/20 09:25:59;;;;;;;3.80;3.38;;;6.80;99.90;;;;;;4963722;28;20226;-82
2021/01/20 09:28:25;;;;;;;2.65;2.17;;;6.80;99.90;;;;;;4981386;28;20183;-82
2021/01/20 09:30:51;;;;;;;5.90;2.80;;;6.80;99.90;;;;;;4982630;28;20242;-83
2021/01/20 09:33:20;;;;;;;2.90;2.27;;;6.80;99.90;;;;;;4959720;28;20180;-83
2021/01/20 09:35:46;;;;;;;3.60;2.75;;;6.80;99.90;;;;;;4958518;28;20525;-83
2021/01/20 09:38:16;;;;;;;2.90;2.10;;;6.90;99.90;;;;;;4959781;28;20175;-82
2021/01/20 09:40:41;;;;;;;4.65;2.22;;;6.90;99.90;;;;;;4973026;28;20665;-83
2021/01/20 09:43:10;;;;;;;3.17;2.60;;;7.00;99.90;;;;;;4988890;28;20206;-81
2021/01/20 09:45:36;;;;;;;2.90;2.42;;;7.00;99.90;;;;;;4991016;28;20203;-82
2021/01/20 09:48:04;;;;;;;3.87;2.70;;;7.00;99.90;;;;;;4958555;28;20187;-82
2021/01/20 09:50:34;;;;;;;4.65;2.53;;;7.10;99.90;;;;;;4976085;28;20207;-83
2021/01/20 09:53:01;;;;;;;2.80;2.20;;;7.20;99.90;;;;;;4978403;28;20167;-82
2021/01/20 09:55:27;;;;;;;4.43;2.35;;;7.10;99.90;;;;;;4961841;28;20337;-83
2021/01/20 09:57:52;;;;;;;4.03;3.10;;;7.20;99.90;;;;;;4980043;28;20180;-83
2021/01/20 10:00:18;;;;;;;3.10;2.30;;;7.20;99.90;;;;;;4954272;28;20239;-83
2021/01/20 10:02:44;;;;;;;3.13;2.33;;;7.20;99.90;;;;;;4980226;28;20263;-83
2021/01/20 10:05:10;;;;;;;2.87;1.77;;;7.20;99.90;;;;;;4964904;28;20490;-82
2021/01/20 10:07:37;;;;;;;6.88;2.30;;;7.20;99.90;;;;;;4985425;28;20574;-82
2021/01/20 10:10:09;;;;;;;4.75;2.50;;;7.10;99.90;;;;;;4965516;28;20211;-82
2021/01/20 10:12:35;;;;;;;5.95;2.50;;;7.20;99.90;;;;;;4963758;28;20551;-82
2021/01/20 10:15:01;;;;;;;6.07;2.38;;;7.20;99.90;;;;;;4963426;28;20206;-82
2021/01/20 10:17:26;;;;;;;2.93;2.50;;;7.30;99.90;;;;;;4964110;28;20175;-82
2021/01/20 10:19:52;;;;;;;2.63;2.43;;;7.30;99.90;;;;;;4962691;28;20551;-84
2021/01/20 10:22:18;;;;;;;3.50;2.13;;;7.40;99.90;;;;;;4980623;28;20183;-83
2021/01/20 10:24:43;;;;;;;5.37;3.73;;;7.40;99.90;;;;;;4980539;28;20695;-82
2021/01/20 10:27:09;;;;;;;4.10;2.40;;;7.50;99.90;;;;;;4963530;28;20194;-81
2021/01/20 10:29:35;;;;;;;4.07;2.70;;;7.50;99.90;;;;;;4979122;28;20188;-81
2021/01/20 10:32:04;;;;;;;7.23;2.63;;;7.60;99.90;;;;;;4962620;28;20185;-81
2021/01/20 10:34:31;;;;;;;6.30;2.83;;;7.60;99.90;;;;;;4979606;28;20175;-82
2021/01/20 10:36:57;;;;;;;3.55;2.40;;;7.70;99.90;;;;;;4985624;28;20539;-82
2021/01/20 10:39:23;;;;;;;3.40;2.47;;;7.70;99.90;;;;;;4983913;28;20239;-81
2021/01/20 10:41:49;;;;;;;4.60;2.90;;;7.80;99.90;;;;;;4980519;28;20489;-81
2021/01/20 10:44:15;;;;;;;3.20;2.40;;;7.80;99.90;;;;;;4981160;28;20423;-82
2021/01/20 10:46:40;;;;;;;2.23;1.90;;;7.80;99.90;;;;;;4980598;28;20203;-81
2021/01/20 10:49:09;;;;;;;4.13;2.43;;;7.90;99.90;;;;;;4980337;28;20199;-81
2021/01/20 10:51:35;;;;;;;7.32;2.42;;;7.90;99.90;;;;;;4966447;28;20286;-82
2021/01/20 10:54:04;;;;;;;3.97;2.33;;;7.90;99.90;;;;;;4980505;28;20203;-82
2021/01/20 10:56:33;;;;;;;3.60;2.30;;;7.90;99.90;;;;;;4980210;28;20599;-81
2021/01/20 10:58:59;;;;;;;3.85;2.63;;;8.00;99.90;;;;;;4953922;29;20252;-80
2021/01/20 11:01:25;;;;;;;2.05;1.63;;;8.00;99.90;;;;;;4928457;29;20191;-81
2021/01/20 11:03:51;;;;;;;4.60;2.83;;;8.00;99.90;;;;;;4943938;29;20176;-81
2021/01/20 11:06:16;;;;;;;3.97;2.40;;;8.10;99.90;;;;;;4963667;28;20229;-82
2021/01/20 11:08:42;;;;;;;5.10;3.27;;;8.10;99.90;;;;;;4941529;28;20175;-81
2021/01/20 11:11:10;;;;;;;5.00;2.60;;;8.10;99.90;;;;;;4979156;28;20225;-81
2021/01/20 11:13:39;;;;;;;4.88;2.75;;;8.20;99.90;;;;;;4961874;28;20172;-82
2021/01/20 11:16:05;;;;;;;2.58;2.38;;;8.20;99.90;;;;;;4960423;28;20193;-82
2021/01/20 11:18:36;;;;;;;4.20;3.00;;;8.30;99.90;;;;;;4961992;28;20714;-81
2021/01/20 11:21:02;;;;;;;13.80;2.70;;;8.30;99.90;;;;;;4963235;28;20195;-82
2021/01/20 11:23:35;;;;;;;7.33;3.10;;;8.40;99.90;;;;;;4979481;28;20582;-82
2021/01/20 11:26:04;;;;;;;3.83;2.75;;;8.50;99.90;;;;;;4962430;28;20450;-81
2021/01/20 11:28:31;;;;;;;3.53;2.50;;;8.50;99.90;;;;;;4961127;28;20186;-81
2021/01/20 11:30:57;;;;;;;2.97;2.28;;;8.50;99.90;;;;;;4978655;28;20203;-81
2021/01/20 11:33:23;;;;;;;3.47;2.27;;;8.60;99.90;;;;;;4978242;28;20182;-80
2021/01/20 11:35:48;;;;;;;3.97;2.77;;;8.60;99.90;;;;;;4965034;28;20219;-80
2021/01/20 11:38:14;;;;;;;2.93;2.43;;;8.70;99.90;;;;;;4962656;28;20186;-81
2021/01/20 11:40:39;;;;;;;5.73;2.80;;;8.70;99.90;;;;;;4979592;28;20183;-81
2021/01/20 11:43:06;;;;;;;5.00;2.10;;;8.60;99.90;;;;;;4978997;28;20191;-82
2021/01/20 11:45:34;;;;;;;2.35;1.77;;;8.70;99.90;;;;;;4979088;28;20279;-81
2021/01/20 11:48:00;;;;;;;3.58;2.45;;;8.60;99.90;;;;;;4978770;28;20338;-81
2021/01/20 11:50:27;;;;;;;2.40;2.15;;;8.70;99.90;;;;;;4978990;28;20202;-81
2021/01/20 11:52:54;;;;;;;3.00;1.90;;;8.70;99.90;;;;;;4961356;28;20546;-81
2021/01/20 11:55:20;;;;;;;3.17;2.28;;;8.70;99.90;;;;;;4978710;28;20195;-82
2021/01/20 11:57:46;;;;;;;4.00;2.45;;;8.70;99.90;;;;;;4968824;28;20446;-82
2021/01/20 12:00:16;;;;;;;4.10;2.10;;;8.80;99.90;;;;;;4967505;28;20194;-82
2021/01/20 12:02:42;;;;;;;4.47;2.20;;;8.80;99.90;;;;;;4976638;28;20295;-82
2021/01/20 12:05:10;;;;;;;5.15;3.42;;;8.70;99.90;;;;;;4960349;28;20215;-81
2021/01/20 12:07:37;;;;;;;5.70;3.00;;;8.80;99.90;;;;;;4978174;28;20175;-82
2021/01/20 12:10:03;;;;;;;6.05;3.05;;;8.80;99.90;;;;;;4977060;28;20214;-82
2021/01/20 12:12:29;;;;;;;4.60;3.05;;;8.80;99.90;;;;;;4943763;28;20187;-82
2021/01/20 12:14:55;;;;;;;3.50;2.53;;;8.80;99.90;;;;;;4944522;28;20211;-82
2021/01/20 12:17:20;;;;;;;4.70;2.73;;;8.80;99.90;;;;;;4994913;28;20189;-83
2021/01/20 12:19:46;;;;;;;5.50;3.27;;;8.90;99.90;;;;;;4981834;28;20206;-82
2021/01/20 12:22:12;;;;;;;3.43;1.97;;;9.00;99.90;;;;;;4976736;28;20619;-81
2021/01/20 12:24:37;;;;;;;5.13;2.10;;;9.00;99.90;;;;;;4977837;28;20189;-81
2021/01/20 12:27:03;;;;;;;4.50;2.80;;;9.00;99.90;;;;;;4959735;28;20231;-81
2021/01/20 12:29:32;;;;;;;3.73;1.93;;;9.10;99.90;;;;;;4959946;28;20176;-82
2021/01/20 12:31:57;;;;;;;3.80;1.95;;;9.20;99.90;;;;;;4960221;28;20191;-80
2021/01/20 12:34:23;;;;;;;2.90;2.17;;;9.20;99.90;;;;;;4959704;28;20191;-81
2021/01/20 12:36:49;;;;;;;4.87;2.13;;;9.20;99.90;;;;;;4962799;28;20690;-80
2021/01/20 12:39:19;;;;;;;2.97;1.90;;;9.10;99.90;;;;;;4983086;28;20508;-82
2021/01/20 12:41:45;;;;;;;2.10;1.83;;;9.10;99.90;;;;;;4982758;28;20186;-81
2021/01/20 12:44:11;;;;;;;2.60;2.03;;;9.10;99.90;;;;;;4964164;28;20184;-81
2021/01/20 12:46:38;;;;;;;5.50;2.03;;;9.10;99.90;;;;;;4982529;28;20761;-81
2021/01/20 12:49:05;;;;;;;3.67;2.50;;;9.10;99.90;;;;;;4977232;28;20659;-81
2021/01/20 12:51:31;;;;;;;5.05;2.50;;;9.20;99.90;;;;;;4976375;28;20203;-82
2021/01/20 12:53:57;;;;;;;3.33;1.80;;;9.20;99.90;;;;;;4960035;28;20247;-81
2021/01/20 12:56:22;;;;;;;4.13;1.80;;;9.20;99.90;;;;;;4959336;28;20434;-81
2021/01/20 12:58:48;;;;;;;4.03;2.37;;;9.20;99.90;;;;;;4951532;28;20430;-82
2021/01/20 13:01:14;;;;;;;2.13;1.40;;;9.20;99.90;;;;;;4944180;28;20176;-83
2021/01/20 13:03:39;;;;;;;2.27;1.37;;;9.10;99.90;;;;;;4978296;28;20183;-82